sensor_id;sensor_type;location;lat;lon;timestamp;P1;durP1;ratioP1;P2;durP2;ratioP2
53533;SDS011;39421;53.204;6.568;2022-09-09T00:03:45;11.50;;;8.05;;
53533;SDS011;39421;53.204;6.568;2022-09-09T00:06:21;11.07;;;7.55;;
53533;SDS011;39421;53.204;6.568;2022-09-09T00:17:16;10.43;;;7.63;;
53533;SDS011;39421;53.204;6.568;2022-09-09T00:19:56;10.32;;;7.90;;
53533;SDS011;39421;53.204;6.568;2022-09-09T00:22:25;11.20;;;7.72;;
53533;SDS011;39421;53.204;6.568;2022-09-09T00:24:56;11.98;;;7.53;;
53533;SDS011;39421;53.204;6.568;2022-09-09T00:27:45;10.83;;;7.87;;
53533;SDS011;39421;53.204;6.568;2022-09-09T00:30:34;10.32;;;7.53;;
53533;SDS011;39421;53.204;6.568;2022-09-09T00:33:03;10.43;;;8.00;;
53533;SDS011;39421;53.204;6.568;2022-09-09T00:35:37;10.40;;;7.78;;
53533;SDS011;39421;53.204;6.568;2022-09-09T00:38:13;12.13;;;7.93;;
53533;SDS011;39421;53.204;6.568;2022-09-09T00:40:50;11.32;;;7.72;;
53533;SDS011;39421;53.204;6.568;2022-09-09T00:43:21;11.73;;;7.75;;
53533;SDS011;39421;53.204;6.568;2022-09-09T00:49:03;10.38;;;7.43;;
53533;SDS011;39421;53.204;6.568;2022-09-09T00:51:51;9.52;;;7.18;;
53533;SDS011;39421;53.204;6.568;2022-09-09T00:57:33;10.27;;;7.03;;
53533;SDS011;39421;53.204;6.568;2022-09-09T01:00:20;9.48;;;6.47;;
53533;SDS011;39421;53.204;6.568;2022-09-09T01:05:51;8.85;;;5.88;;
53533;SDS011;39421;53.204;6.568;2022-09-09T01:08:39;8.55;;;6.43;;
53533;SDS011;39421;53.204;6.568;2022-09-09T01:11:25;10.47;;;6.07;;
53533;SDS011;39421;53.204;6.568;2022-09-09T01:14:05;8.82;;;6.10;;
53533;SDS011;39421;53.204;6.568;2022-09-09T01:16:38;8.60;;;6.40;;
53533;SDS011;39421;53.204;6.568;2022-09-09T01:19:07;10.02;;;6.60;;
53533;SDS011;39421;53.204;6.568;2022-09-09T01:21:50;10.10;;;6.38;;
53533;SDS011;39421;53.204;6.568;2022-09-09T01:24:38;10.45;;;6.85;;
53533;SDS011;39421;53.204;6.568;2022-09-09T01:27:10;10.93;;;6.80;;
53533;SDS011;39421;53.204;6.568;2022-09-09T01:29:37;9.93;;;6.38;;
53533;SDS011;39421;53.204;6.568;2022-09-09T01:32:37;8.95;;;6.40;;
53533;SDS011;39421;53.204;6.568;2022-09-09T01:35:03;8.15;;;6.57;;
53533;SDS011;39421;53.204;6.568;2022-09-09T01:37:30;8.95;;;6.05;;
53533;SDS011;39421;53.204;6.568;2022-09-09T01:39:56;9.05;;;6.25;;
53533;SDS011;39421;53.204;6.568;2022-09-09T01:42:21;8.63;;;6.10;;
53533;SDS011;39421;53.204;6.568;2022-09-09T01:44:47;8.60;;;6.13;;
53533;SDS011;39421;53.204;6.568;2022-09-09T01:47:14;8.55;;;6.40;;
53533;SDS011;39421;53.204;6.568;2022-09-09T01:49:40;9.43;;;6.03;;
53533;SDS011;39421;53.204;6.568;2022-09-09T01:52:05;9.10;;;6.60;;
53533;SDS011;39421;53.204;6.568;2022-09-09T01:54:33;10.80;;;6.40;;
53533;SDS011;39421;53.204;6.568;2022-09-09T01:57:03;9.57;;;6.82;;
53533;SDS011;39421;53.204;6.568;2022-09-09T02:07:03;10.95;;;7.38;;
53533;SDS011;39421;53.204;6.568;2022-09-09T02:09:37;10.50;;;7.38;;
53533;SDS011;39421;53.204;6.568;2022-09-09T02:12:11;9.80;;;7.33;;
53533;SDS011;39421;53.204;6.568;2022-09-09T02:14:45;11.48;;;7.60;;
53533;SDS011;39421;53.204;6.568;2022-09-09T02:17:17;11.07;;;7.70;;
53533;SDS011;39421;53.204;6.568;2022-09-09T02:19:52;12.93;;;8.27;;
53533;SDS011;39421;53.204;6.568;2022-09-09T02:22:24;10.55;;;7.90;;
53533;SDS011;39421;53.204;6.568;2022-09-09T02:24:52;12.77;;;8.23;;
53533;SDS011;39421;53.204;6.568;2022-09-09T02:27:23;12.30;;;8.30;;
53533;SDS011;39421;53.204;6.568;2022-09-09T02:29:49;12.63;;;8.03;;
53533;SDS011;39421;53.204;6.568;2022-09-09T02:32:19;11.55;;;8.10;;
53533;SDS011;39421;53.204;6.568;2022-09-09T02:34:51;10.60;;;8.30;;
53533;SDS011;39421;53.204;6.568;2022-09-09T02:37:21;10.70;;;7.35;;
53533;SDS011;39421;53.204;6.568;2022-09-09T02:39:53;11.70;;;8.27;;
53533;SDS011;39421;53.204;6.568;2022-09-09T02:42:19;11.35;;;7.97;;
53533;SDS011;39421;53.204;6.568;2022-09-09T02:44:45;12.15;;;8.25;;
53533;SDS011;39421;53.204;6.568;2022-09-09T02:52:25;11.27;;;8.02;;
53533;SDS011;39421;53.204;6.568;2022-09-09T02:54:57;12.00;;;8.60;;
53533;SDS011;39421;53.204;6.568;2022-09-09T02:57:30;13.20;;;8.10;;
53533;SDS011;39421;53.204;6.568;2022-09-09T02:59:58;12.07;;;8.45;;
53533;SDS011;39421;53.204;6.568;2022-09-09T03:02:25;13.65;;;8.15;;
53533;SDS011;39421;53.204;6.568;2022-09-09T03:04:51;10.30;;;7.53;;
53533;SDS011;39421;53.204;6.568;2022-09-09T03:07:20;12.30;;;8.18;;
53533;SDS011;39421;53.204;6.568;2022-09-09T03:09:45;11.15;;;8.20;;
53533;SDS011;39421;53.204;6.568;2022-09-09T03:12:11;12.45;;;7.95;;
53533;SDS011;39421;53.204;6.568;2022-09-09T03:14:37;12.73;;;8.27;;
53533;SDS011;39421;53.204;6.568;2022-09-09T03:17:04;12.03;;;7.93;;
53533;SDS011;39421;53.204;6.568;2022-09-09T03:19:30;11.50;;;8.13;;
53533;SDS011;39421;53.204;6.568;2022-09-09T03:21:56;12.07;;;7.80;;
53533;SDS011;39421;53.204;6.568;2022-09-09T03:24:23;10.10;;;7.15;;
53533;SDS011;39421;53.204;6.568;2022-09-09T03:26:49;11.13;;;6.72;;
53533;SDS011;39421;53.204;6.568;2022-09-09T03:29:15;9.70;;;6.53;;
53533;SDS011;39421;53.204;6.568;2022-09-09T03:31:42;8.55;;;6.43;;
53533;SDS011;39421;53.204;6.568;2022-09-09T03:34:08;10.65;;;6.68;;
53533;SDS011;39421;53.204;6.568;2022-09-09T03:36:34;9.33;;;6.83;;
53533;SDS011;39421;53.204;6.568;2022-09-09T03:39:00;10.83;;;6.80;;
53533;SDS011;39421;53.204;6.568;2022-09-09T03:41:28;9.00;;;6.47;;
53533;SDS011;39421;53.204;6.568;2022-09-09T03:43:54;9.32;;;6.10;;
53533;SDS011;39421;53.204;6.568;2022-09-09T03:46:20;8.07;;;5.60;;
53533;SDS011;39421;53.204;6.568;2022-09-09T03:48:47;8.32;;;5.40;;
53533;SDS011;39421;53.204;6.568;2022-09-09T03:51:13;8.23;;;5.50;;
53533;SDS011;39421;53.204;6.568;2022-09-09T03:53:40;9.23;;;5.35;;
53533;SDS011;39421;53.204;6.568;2022-09-09T03:56:06;7.82;;;4.93;;
53533;SDS011;39421;53.204;6.568;2022-09-09T03:58:35;7.70;;;4.45;;
53533;SDS011;39421;53.204;6.568;2022-09-09T04:03:38;6.35;;;3.72;;
53533;SDS011;39421;53.204;6.568;2022-09-09T04:06:04;6.82;;;3.50;;
53533;SDS011;39421;53.204;6.568;2022-09-09T04:08:31;6.95;;;3.47;;
53533;SDS011;39421;53.204;6.568;2022-09-09T04:10:57;5.28;;;3.20;;
53533;SDS011;39421;53.204;6.568;2022-09-09T04:13:24;6.68;;;3.13;;
53533;SDS011;39421;53.204;6.568;2022-09-09T04:15:53;4.83;;;3.10;;
53533;SDS011;39421;53.204;6.568;2022-09-09T04:18:21;6.63;;;3.20;;
53533;SDS011;39421;53.204;6.568;2022-09-09T04:20:48;8.00;;;3.20;;
53533;SDS011;39421;53.204;6.568;2022-09-09T04:23:15;4.55;;;3.13;;
53533;SDS011;39421;53.204;6.568;2022-09-09T04:25:44;4.63;;;3.10;;
53533;SDS011;39421;53.204;6.568;2022-09-09T04:28:12;4.67;;;2.87;;
53533;SDS011;39421;53.204;6.568;2022-09-09T04:30:39;4.00;;;3.10;;
53533;SDS011;39421;53.204;6.568;2022-09-09T04:33:05;5.23;;;3.00;;
53533;SDS011;39421;53.204;6.568;2022-09-09T04:35:31;4.95;;;3.00;;
53533;SDS011;39421;53.204;6.568;2022-09-09T04:37:58;6.28;;;3.20;;
53533;SDS011;39421;53.204;6.568;2022-09-09T04:40:23;4.65;;;3.20;;
53533;SDS011;39421;53.204;6.568;2022-09-09T04:42:50;5.83;;;3.63;;
53533;SDS011;39421;53.204;6.568;2022-09-09T04:45:16;6.47;;;3.38;;
53533;SDS011;39421;53.204;6.568;2022-09-09T04:47:42;6.05;;;3.50;;
53533;SDS011;39421;53.204;6.568;2022-09-09T04:50:08;5.30;;;3.40;;
53533;SDS011;39421;53.204;6.568;2022-09-09T04:52:37;6.83;;;3.87;;
53533;SDS011;39421;53.204;6.568;2022-09-09T04:55:02;6.07;;;4.00;;
53533;SDS011;39421;53.204;6.568;2022-09-09T04:57:29;7.35;;;3.97;;
53533;SDS011;39421;53.204;6.568;2022-09-09T04:59:57;6.78;;;4.10;;
53533;SDS011;39421;53.204;6.568;2022-09-09T05:02:23;6.40;;;4.22;;
53533;SDS011;39421;53.204;6.568;2022-09-09T05:04:48;7.68;;;4.57;;
53533;SDS011;39421;53.204;6.568;2022-09-09T05:07:14;8.35;;;4.28;;
53533;SDS011;39421;53.204;6.568;2022-09-09T05:09:40;8.18;;;4.22;;
53533;SDS011;39421;53.204;6.568;2022-09-09T05:12:06;8.50;;;5.10;;
53533;SDS011;39421;53.204;6.568;2022-09-09T05:14:33;6.80;;;4.75;;
53533;SDS011;39421;53.204;6.568;2022-09-09T05:17:00;6.78;;;4.65;;
53533;SDS011;39421;53.204;6.568;2022-09-09T05:19:26;8.20;;;4.72;;
53533;SDS011;39421;53.204;6.568;2022-09-09T05:21:52;7.82;;;5.07;;
53533;SDS011;39421;53.204;6.568;2022-09-09T05:24:17;7.35;;;5.20;;
53533;SDS011;39421;53.204;6.568;2022-09-09T05:26:43;7.67;;;5.40;;
53533;SDS011;39421;53.204;6.568;2022-09-09T05:29:09;7.50;;;5.18;;
53533;SDS011;39421;53.204;6.568;2022-09-09T05:31:34;7.70;;;5.37;;
53533;SDS011;39421;53.204;6.568;2022-09-09T05:34:00;7.87;;;5.67;;
53533;SDS011;39421;53.204;6.568;2022-09-09T05:36:26;8.40;;;6.17;;
53533;SDS011;39421;53.204;6.568;2022-09-09T05:38:51;8.67;;;6.30;;
53533;SDS011;39421;53.204;6.568;2022-09-09T05:41:20;9.98;;;6.82;;
53533;SDS011;39421;53.204;6.568;2022-09-09T05:43:48;8.73;;;6.22;;
53533;SDS011;39421;53.204;6.568;2022-09-09T05:46:15;9.75;;;6.78;;
53533;SDS011;39421;53.204;6.568;2022-09-09T05:48:42;10.63;;;6.50;;
53533;SDS011;39421;53.204;6.568;2022-09-09T05:51:12;10.45;;;6.88;;
53533;SDS011;39421;53.204;6.568;2022-09-09T05:53:42;10.38;;;6.95;;
53533;SDS011;39421;53.204;6.568;2022-09-09T05:56:16;10.13;;;7.00;;
53533;SDS011;39421;53.204;6.568;2022-09-09T05:58:43;9.98;;;6.93;;
53533;SDS011;39421;53.204;6.568;2022-09-09T06:01:10;11.90;;;7.33;;
53533;SDS011;39421;53.204;6.568;2022-09-09T06:03:39;10.93;;;7.30;;
53533;SDS011;39421;53.204;6.568;2022-09-09T06:06:07;9.03;;;6.80;;
53533;SDS011;39421;53.204;6.568;2022-09-09T06:08:35;11.80;;;7.50;;
53533;SDS011;39421;53.204;6.568;2022-09-09T06:11:04;10.80;;;7.30;;
53533;SDS011;39421;53.204;6.568;2022-09-09T06:13:34;9.48;;;7.15;;
53533;SDS011;39421;53.204;6.568;2022-09-09T06:16:02;10.27;;;6.80;;
53533;SDS011;39421;53.204;6.568;2022-09-09T06:18:29;8.98;;;7.00;;
53533;SDS011;39421;53.204;6.568;2022-09-09T06:20:55;10.63;;;7.30;;
53533;SDS011;39421;53.204;6.568;2022-09-09T06:23:26;10.02;;;6.85;;
53533;SDS011;39421;53.204;6.568;2022-09-09T06:26:12;10.35;;;6.75;;
53533;SDS011;39421;53.204;6.568;2022-09-09T06:28:41;9.75;;;6.88;;
53533;SDS011;39421;53.204;6.568;2022-09-09T06:31:08;9.90;;;6.53;;
53533;SDS011;39421;53.204;6.568;2022-09-09T06:33:41;9.55;;;6.20;;
53533;SDS011;39421;53.204;6.568;2022-09-09T06:36:11;8.23;;;6.53;;
53533;SDS011;39421;53.204;6.568;2022-09-09T06:38:38;9.25;;;6.90;;
53533;SDS011;39421;53.204;6.568;2022-09-09T06:41:04;9.48;;;6.80;;
53533;SDS011;39421;53.204;6.568;2022-09-09T06:43:30;8.15;;;5.93;;
53533;SDS011;39421;53.204;6.568;2022-09-09T06:46:00;10.02;;;6.75;;
53533;SDS011;39421;53.204;6.568;2022-09-09T06:48:28;9.23;;;6.53;;
53533;SDS011;39421;53.204;6.568;2022-09-09T06:51:05;10.00;;;6.20;;
53533;SDS011;39421;53.204;6.568;2022-09-09T06:53:31;9.65;;;6.40;;
53533;SDS011;39421;53.204;6.568;2022-09-09T06:56:02;10.00;;;6.78;;
53533;SDS011;39421;53.204;6.568;2022-09-09T06:58:43;11.60;;;6.90;;
53533;SDS011;39421;53.204;6.568;2022-09-09T07:01:11;8.82;;;6.15;;
53533;SDS011;39421;53.204;6.568;2022-09-09T07:03:39;9.00;;;6.40;;
53533;SDS011;39421;53.204;6.568;2022-09-09T07:06:06;9.02;;;6.32;;
53533;SDS011;39421;53.204;6.568;2022-09-09T07:08:32;9.15;;;6.30;;
53533;SDS011;39421;53.204;6.568;2022-09-09T07:11:05;8.98;;;6.00;;
53533;SDS011;39421;53.204;6.568;2022-09-09T07:13:32;8.48;;;6.22;;
53533;SDS011;39421;53.204;6.568;2022-09-09T07:16:08;9.50;;;6.10;;
53533;SDS011;39421;53.204;6.568;2022-09-09T07:18:35;9.23;;;6.10;;
53533;SDS011;39421;53.204;6.568;2022-09-09T07:21:02;7.43;;;5.90;;
53533;SDS011;39421;53.204;6.568;2022-09-09T07:23:28;9.05;;;6.03;;
53533;SDS011;39421;53.204;6.568;2022-09-09T07:25:56;8.43;;;5.88;;
53533;SDS011;39421;53.204;6.568;2022-09-09T07:28:23;8.50;;;5.72;;
53533;SDS011;39421;53.204;6.568;2022-09-09T07:30:53;8.43;;;5.82;;
53533;SDS011;39421;53.204;6.568;2022-09-09T07:33:20;8.32;;;5.82;;
53533;SDS011;39421;53.204;6.568;2022-09-09T07:35:45;8.53;;;5.80;;
53533;SDS011;39421;53.204;6.568;2022-09-09T07:38:11;7.50;;;5.60;;
53533;SDS011;39421;53.204;6.568;2022-09-09T07:40:37;6.95;;;5.38;;
53533;SDS011;39421;53.204;6.568;2022-09-09T07:43:03;8.02;;;5.55;;
53533;SDS011;39421;53.204;6.568;2022-09-09T07:45:29;9.00;;;5.65;;
53533;SDS011;39421;53.204;6.568;2022-09-09T07:47:57;9.82;;;5.80;;
53533;SDS011;39421;53.204;6.568;2022-09-09T07:50:23;10.17;;;6.17;;
53533;SDS011;39421;53.204;6.568;2022-09-09T07:52:50;7.13;;;5.53;;
53533;SDS011;39421;53.204;6.568;2022-09-09T07:55:18;8.15;;;5.55;;
53533;SDS011;39421;53.204;6.568;2022-09-09T07:57:45;7.70;;;5.70;;
53533;SDS011;39421;53.204;6.568;2022-09-09T08:00:11;8.73;;;5.40;;
53533;SDS011;39421;53.204;6.568;2022-09-09T08:02:40;8.30;;;5.28;;
53533;SDS011;39421;53.204;6.568;2022-09-09T08:05:06;9.32;;;5.55;;
53533;SDS011;39421;53.204;6.568;2022-09-09T08:07:32;7.03;;;4.85;;
53533;SDS011;39421;53.204;6.568;2022-09-09T08:09:57;7.15;;;4.78;;
53533;SDS011;39421;53.204;6.568;2022-09-09T08:12:23;9.70;;;5.07;;
53533;SDS011;39421;53.204;6.568;2022-09-09T08:14:49;9.10;;;5.10;;
53533;SDS011;39421;53.204;6.568;2022-09-09T08:17:16;8.43;;;5.05;;
53533;SDS011;39421;53.204;6.568;2022-09-09T08:19:42;6.93;;;4.88;;
53533;SDS011;39421;53.204;6.568;2022-09-09T08:22:09;7.32;;;4.70;;
53533;SDS011;39421;53.204;6.568;2022-09-09T08:24:35;6.90;;;4.88;;
53533;SDS011;39421;53.204;6.568;2022-09-09T08:27:01;7.53;;;5.22;;
53533;SDS011;39421;53.204;6.568;2022-09-09T08:29:27;7.25;;;4.57;;
53533;SDS011;39421;53.204;6.568;2022-09-09T08:31:57;7.43;;;4.68;;
53533;SDS011;39421;53.204;6.568;2022-09-09T08:34:24;8.18;;;4.68;;
53533;SDS011;39421;53.204;6.568;2022-09-09T08:36:51;5.72;;;4.10;;
53533;SDS011;39421;53.204;6.568;2022-09-09T08:39:19;9.80;;;4.47;;
53533;SDS011;39421;53.204;6.568;2022-09-09T08:52:39;7.40;;;4.32;;
53533;SDS011;39421;53.204;6.568;2022-09-09T08:55:24;6.45;;;4.30;;
53533;SDS011;39421;53.204;6.568;2022-09-09T08:58:02;7.57;;;4.35;;
53533;SDS011;39421;53.204;6.568;2022-09-09T09:11:21;6.53;;;4.20;;
53533;SDS011;39421;53.204;6.568;2022-09-09T09:16:23;8.47;;;4.53;;
53533;SDS011;39421;53.204;6.568;2022-09-09T09:19:01;6.72;;;4.22;;
53533;SDS011;39421;53.204;6.568;2022-09-09T09:21:43;7.00;;;4.23;;
53533;SDS011;39421;53.204;6.568;2022-09-09T09:26:48;7.65;;;4.40;;
53533;SDS011;39421;53.204;6.568;2022-09-09T09:29:15;6.68;;;4.15;;
53533;SDS011;39421;53.204;6.568;2022-09-09T09:31:48;6.97;;;4.53;;
53533;SDS011;39421;53.204;6.568;2022-09-09T09:34:19;5.85;;;4.18;;
53533;SDS011;39421;53.204;6.568;2022-09-09T09:37:22;7.30;;;4.38;;
53533;SDS011;39421;53.204;6.568;2022-09-09T09:39:42;6.25;;;4.40;;
53533;SDS011;39421;53.204;6.568;2022-09-09T09:42:11;5.75;;;4.40;;
53533;SDS011;39421;53.204;6.568;2022-09-09T09:44:39;6.13;;;4.30;;
53533;SDS011;39421;53.204;6.568;2022-09-09T09:47:14;7.15;;;4.45;;
53533;SDS011;39421;53.204;6.568;2022-09-09T09:49:54;7.03;;;4.50;;
53533;SDS011;39421;53.204;6.568;2022-09-09T09:52:32;9.23;;;4.20;;
53533;SDS011;39421;53.204;6.568;2022-09-09T09:55:02;6.43;;;4.30;;
53533;SDS011;39421;53.204;6.568;2022-09-09T09:57:42;7.55;;;3.85;;
53533;SDS011;39421;53.204;6.568;2022-09-09T10:00:21;7.03;;;4.20;;
53533;SDS011;39421;53.204;6.568;2022-09-09T10:02:50;6.95;;;3.72;;
53533;SDS011;39421;53.204;6.568;2022-09-09T10:05:25;5.55;;;3.58;;
53533;SDS011;39421;53.204;6.568;2022-09-09T10:08:08;7.32;;;3.45;;
53533;SDS011;39421;53.204;6.568;2022-09-09T10:13:44;6.82;;;3.40;;
53533;SDS011;39421;53.204;6.568;2022-09-09T10:19:15;7.63;;;3.45;;
53533;SDS011;39421;53.204;6.568;2022-09-09T10:21:55;9.63;;;3.35;;
53533;SDS011;39421;53.204;6.568;2022-09-09T10:32:41;7.50;;;3.13;;
53533;SDS011;39421;53.204;6.568;2022-09-09T10:35:33;6.88;;;3.17;;
53533;SDS011;39421;53.204;6.568;2022-09-09T10:38:11;9.43;;;3.17;;
53533;SDS011;39421;53.204;6.568;2022-09-09T10:40:48;7.00;;;3.08;;
53533;SDS011;39421;53.204;6.568;2022-09-09T10:46:27;6.50;;;2.70;;
53533;SDS011;39421;53.204;6.568;2022-09-09T10:57:13;5.65;;;2.53;;
53533;SDS011;39421;53.204;6.568;2022-09-09T10:59:47;6.78;;;2.90;;
53533;SDS011;39421;53.204;6.568;2022-09-09T11:02:25;6.97;;;2.50;;
53533;SDS011;39421;53.204;6.568;2022-09-09T11:07:29;8.48;;;2.80;;
53533;SDS011;39421;53.204;6.568;2022-09-09T11:10:48;6.32;;;2.58;;
53533;SDS011;39421;53.204;6.568;2022-09-09T11:13:26;9.93;;;2.50;;
53533;SDS011;39421;53.204;6.568;2022-09-09T11:16:09;5.32;;;2.13;;
53533;SDS011;39421;53.204;6.568;2022-09-09T11:18:46;4.57;;;2.28;;
53533;SDS011;39421;53.204;6.568;2022-09-09T11:21:16;4.95;;;2.00;;
53533;SDS011;39421;53.204;6.568;2022-09-09T11:24:02;10.13;;;2.50;;
53533;SDS011;39421;53.204;6.568;2022-09-09T11:26:45;4.13;;;1.92;;
53533;SDS011;39421;53.204;6.568;2022-09-09T11:38:02;6.65;;;2.13;;
53533;SDS011;39421;53.204;6.568;2022-09-09T11:40:53;6.07;;;2.20;;
53533;SDS011;39421;53.204;6.568;2022-09-09T11:43:33;6.57;;;2.30;;
53533;SDS011;39421;53.204;6.568;2022-09-09T11:46:06;7.13;;;2.47;;
53533;SDS011;39421;53.204;6.568;2022-09-09T11:48:36;5.40;;;2.30;;
53533;SDS011;39421;53.204;6.568;2022-09-09T11:51:25;5.47;;;2.10;;
53533;SDS011;39421;53.204;6.568;2022-09-09T11:53:59;5.70;;;2.38;;
53533;SDS011;39421;53.204;6.568;2022-09-09T11:56:51;5.30;;;2.20;;
53533;SDS011;39421;53.204;6.568;2022-09-09T11:59:20;6.70;;;2.40;;
53533;SDS011;39421;53.204;6.568;2022-09-09T12:06:57;4.80;;;2.13;;
53533;SDS011;39421;53.204;6.568;2022-09-09T12:09:32;5.10;;;2.38;;
53533;SDS011;39421;53.204;6.568;2022-09-09T12:15:00;3.78;;;1.80;;
53533;SDS011;39421;53.204;6.568;2022-09-09T12:17:46;4.05;;;1.98;;
53533;SDS011;39421;53.204;6.568;2022-09-09T12:20:21;4.63;;;2.03;;
53533;SDS011;39421;53.204;6.568;2022-09-09T12:23:14;7.07;;;2.38;;
53533;SDS011;39421;53.204;6.568;2022-09-09T12:28:39;4.70;;;1.90;;
53533;SDS011;39421;53.204;6.568;2022-09-09T12:34:20;4.95;;;1.83;;
53533;SDS011;39421;53.204;6.568;2022-09-09T12:37:04;4.72;;;1.70;;
53533;SDS011;39421;53.204;6.568;2022-09-09T12:42:53;5.75;;;2.00;;
53533;SDS011;39421;53.204;6.568;2022-09-09T12:45:27;7.53;;;2.10;;
53533;SDS011;39421;53.204;6.568;2022-09-09T12:48:06;4.60;;;1.90;;
53533;SDS011;39421;53.204;6.568;2022-09-09T12:50:35;5.22;;;2.25;;
53533;SDS011;39421;53.204;6.568;2022-09-09T12:53:12;7.95;;;2.20;;
53533;SDS011;39421;53.204;6.568;2022-09-09T12:58:31;6.13;;;2.40;;
53533;SDS011;39421;53.204;6.568;2022-09-09T13:00:58;3.90;;;1.90;;
53533;SDS011;39421;53.204;6.568;2022-09-09T13:03:30;5.97;;;2.05;;
53533;SDS011;39421;53.204;6.568;2022-09-09T13:06:18;6.03;;;2.08;;
53533;SDS011;39421;53.204;6.568;2022-09-09T13:08:54;9.05;;;2.25;;
53533;SDS011;39421;53.204;6.568;2022-09-09T13:11:30;4.63;;;2.20;;
53533;SDS011;39421;53.204;6.568;2022-09-09T13:14:03;11.00;;;2.87;;
53533;SDS011;39421;53.204;6.568;2022-09-09T13:16:35;9.65;;;2.88;;
53533;SDS011;39421;53.204;6.568;2022-09-09T13:19:14;8.30;;;2.13;;
53533;SDS011;39421;53.204;6.568;2022-09-09T13:21:41;7.15;;;2.28;;
53533;SDS011;39421;53.204;6.568;2022-09-09T13:26:55;6.20;;;2.10;;
53533;SDS011;39421;53.204;6.568;2022-09-09T13:29:22;8.13;;;2.17;;
53533;SDS011;39421;53.204;6.568;2022-09-09T13:31:48;4.60;;;2.00;;
53533;SDS011;39421;53.204;6.568;2022-09-09T13:34:30;5.80;;;2.53;;
53533;SDS011;39421;53.204;6.568;2022-09-09T13:37:01;7.30;;;2.30;;
53533;SDS011;39421;53.204;6.568;2022-09-09T13:39:31;5.88;;;2.03;;
53533;SDS011;39421;53.204;6.568;2022-09-09T13:41:59;4.70;;;1.95;;
53533;SDS011;39421;53.204;6.568;2022-09-09T13:44:38;6.13;;;2.00;;
53533;SDS011;39421;53.204;6.568;2022-09-09T13:49:34;5.75;;;2.13;;
53533;SDS011;39421;53.204;6.568;2022-09-09T13:52:10;4.40;;;1.92;;
53533;SDS011;39421;53.204;6.568;2022-09-09T13:54:38;2.78;;;1.80;;
53533;SDS011;39421;53.204;6.568;2022-09-09T13:57:05;6.45;;;1.90;;
53533;SDS011;39421;53.204;6.568;2022-09-09T13:59:40;3.78;;;1.70;;
53533;SDS011;39421;53.204;6.568;2022-09-09T14:02:06;3.57;;;1.60;;
53533;SDS011;39421;53.204;6.568;2022-09-09T14:04:37;2.70;;;1.48;;
53533;SDS011;39421;53.204;6.568;2022-09-09T14:07:07;84.95;;;11.00;;
53533;SDS011;39421;53.204;6.568;2022-09-09T14:09:37;3.80;;;1.30;;
53533;SDS011;39421;53.204;6.568;2022-09-09T14:12:04;2.45;;;1.30;;
53533;SDS011;39421;53.204;6.568;2022-09-09T14:14:30;3.28;;;1.40;;
53533;SDS011;39421;53.204;6.568;2022-09-09T14:17:01;2.35;;;1.40;;
53533;SDS011;39421;53.204;6.568;2022-09-09T14:19:28;2.75;;;1.50;;
53533;SDS011;39421;53.204;6.568;2022-09-09T14:21:56;3.65;;;1.40;;
53533;SDS011;39421;53.204;6.568;2022-09-09T14:24:27;3.25;;;1.20;;
53533;SDS011;39421;53.204;6.568;2022-09-09T14:26:53;3.93;;;1.13;;
53533;SDS011;39421;53.204;6.568;2022-09-09T14:29:20;3.28;;;1.27;;
53533;SDS011;39421;53.204;6.568;2022-09-09T14:31:45;4.50;;;1.45;;
53533;SDS011;39421;53.204;6.568;2022-09-09T14:34:11;2.43;;;1.57;;
53533;SDS011;39421;53.204;6.568;2022-09-09T14:36:39;3.78;;;1.20;;
53533;SDS011;39421;53.204;6.568;2022-09-09T14:39:06;4.35;;;1.30;;
53533;SDS011;39421;53.204;6.568;2022-09-09T14:41:35;3.67;;;1.30;;
53533;SDS011;39421;53.204;6.568;2022-09-09T14:44:00;23.80;;;3.40;;
53533;SDS011;39421;53.204;6.568;2022-09-09T14:46:26;2.88;;;0.90;;
53533;SDS011;39421;53.204;6.568;2022-09-09T14:48:52;2.92;;;0.70;;
53533;SDS011;39421;53.204;6.568;2022-09-09T14:51:19;1.47;;;0.80;;
53533;SDS011;39421;53.204;6.568;2022-09-09T14:53:51;1.77;;;0.70;;
53533;SDS011;39421;53.204;6.568;2022-09-09T14:56:19;0.80;;;0.70;;
53533;SDS011;39421;53.204;6.568;2022-09-09T14:58:47;1.77;;;0.90;;
53533;SDS011;39421;53.204;6.568;2022-09-09T15:01:14;2.28;;;1.00;;
53533;SDS011;39421;53.204;6.568;2022-09-09T15:03:41;2.20;;;1.20;;
53533;SDS011;39421;53.204;6.568;2022-09-09T15:06:09;3.08;;;1.25;;
53533;SDS011;39421;53.204;6.568;2022-09-09T15:08:37;1.88;;;1.00;;
53533;SDS011;39421;53.204;6.568;2022-09-09T15:11:05;2.33;;;1.30;;
53533;SDS011;39421;53.204;6.568;2022-09-09T15:13:35;3.30;;;1.40;;
53533;SDS011;39421;53.204;6.568;2022-09-09T15:16:09;3.10;;;1.40;;
53533;SDS011;39421;53.204;6.568;2022-09-09T15:18:37;3.13;;;1.42;;
53533;SDS011;39421;53.204;6.568;2022-09-09T15:21:05;2.17;;;1.25;;
53533;SDS011;39421;53.204;6.568;2022-09-09T15:23:31;2.60;;;1.48;;
53533;SDS011;39421;53.204;6.568;2022-09-09T15:26:19;4.70;;;1.50;;
53533;SDS011;39421;53.204;6.568;2022-09-09T15:28:50;4.93;;;1.63;;
53533;SDS011;39421;53.204;6.568;2022-09-09T15:31:18;4.93;;;1.87;;
53533;SDS011;39421;53.204;6.568;2022-09-09T15:33:57;3.70;;;1.58;;
53533;SDS011;39421;53.204;6.568;2022-09-09T15:36:31;3.25;;;1.50;;
53533;SDS011;39421;53.204;6.568;2022-09-09T15:39:05;4.18;;;1.80;;
53533;SDS011;39421;53.204;6.568;2022-09-09T15:41:37;3.45;;;1.70;;
53533;SDS011;39421;53.204;6.568;2022-09-09T15:44:07;3.25;;;1.70;;
53533;SDS011;39421;53.204;6.568;2022-09-09T15:49:15;2.75;;;1.33;;
53533;SDS011;39421;53.204;6.568;2022-09-09T15:51:53;2.85;;;1.50;;
53533;SDS011;39421;53.204;6.568;2022-09-09T15:54:21;1.95;;;1.40;;
53533;SDS011;39421;53.204;6.568;2022-09-09T15:56:56;2.78;;;1.27;;
53533;SDS011;39421;53.204;6.568;2022-09-09T15:59:23;2.47;;;1.20;;
53533;SDS011;39421;53.204;6.568;2022-09-09T16:01:52;3.00;;;1.35;;
53533;SDS011;39421;53.204;6.568;2022-09-09T16:04:22;2.47;;;1.13;;
53533;SDS011;39421;53.204;6.568;2022-09-09T16:06:53;2.55;;;1.30;;
53533;SDS011;39421;53.204;6.568;2022-09-09T16:09:22;3.67;;;1.30;;
53533;SDS011;39421;53.204;6.568;2022-09-09T16:11:48;2.90;;;1.20;;
53533;SDS011;39421;53.204;6.568;2022-09-09T16:14:15;3.35;;;1.10;;
53533;SDS011;39421;53.204;6.568;2022-09-09T16:16:41;2.78;;;1.20;;
53533;SDS011;39421;53.204;6.568;2022-09-09T16:19:08;3.47;;;1.60;;
53533;SDS011;39421;53.204;6.568;2022-09-09T16:21:41;2.97;;;1.40;;
53533;SDS011;39421;53.204;6.568;2022-09-09T16:24:10;2.42;;;1.40;;
53533;SDS011;39421;53.204;6.568;2022-09-09T16:26:39;2.47;;;1.20;;
53533;SDS011;39421;53.204;6.568;2022-09-09T16:29:09;4.97;;;1.50;;
53533;SDS011;39421;53.204;6.568;2022-09-09T16:31:36;1.90;;;1.40;;
53533;SDS011;39421;53.204;6.568;2022-09-09T16:34:08;4.13;;;1.60;;
53533;SDS011;39421;53.204;6.568;2022-09-09T16:36:38;2.50;;;1.40;;
53533;SDS011;39421;53.204;6.568;2022-09-09T16:39:09;2.88;;;1.35;;
53533;SDS011;39421;53.204;6.568;2022-09-09T16:41:46;3.17;;;1.58;;
53533;SDS011;39421;53.204;6.568;2022-09-09T16:44:18;4.90;;;1.50;;
53533;SDS011;39421;53.204;6.568;2022-09-09T16:46:47;3.00;;;1.30;;
53533;SDS011;39421;53.204;6.568;2022-09-09T16:49:19;3.03;;;1.70;;
53533;SDS011;39421;53.204;6.568;2022-09-09T16:51:57;2.05;;;1.50;;
53533;SDS011;39421;53.204;6.568;2022-09-09T16:54:25;2.40;;;1.52;;
53533;SDS011;39421;53.204;6.568;2022-09-09T16:56:52;4.28;;;1.58;;
53533;SDS011;39421;53.204;6.568;2022-09-09T16:59:21;2.47;;;1.53;;
53533;SDS011;39421;53.204;6.568;2022-09-09T17:02:15;3.42;;;1.65;;
53533;SDS011;39421;53.204;6.568;2022-09-09T17:04:44;1.83;;;1.60;;
53533;SDS011;39421;53.204;6.568;2022-09-09T17:07:20;2.85;;;1.67;;
53533;SDS011;39421;53.204;6.568;2022-09-09T17:09:59;2.87;;;1.77;;
53533;SDS011;39421;53.204;6.568;2022-09-09T17:12:38;2.80;;;1.60;;
53533;SDS011;39421;53.204;6.568;2022-09-09T17:15:07;3.42;;;1.90;;